sensor_id;sensor_type;location;lat;lon;timestamp;P1;durP1;ratioP1;P2;durP2;ratioP2
8293;SDS011;4185;41.506;24.938;2023-02-26T00:02:10;17.03;;;10.23;;
8293;SDS011;4185;41.506;24.938;2023-02-26T00:04:37;19.23;;;11.17;;
8293;SDS011;4185;41.506;24.938;2023-02-26T00:07:04;20.83;;;11.60;;
8293;SDS011;4185;41.506;24.938;2023-02-26T00:09:31;23.73;;;11.60;;
8293;SDS011;4185;41.506;24.938;2023-02-26T00:11:58;23.03;;;14.13;;
8293;SDS011;4185;41.506;24.938;2023-02-26T00:14:26;20.00;;;10.77;;
8293;SDS011;4185;41.506;24.938;2023-02-26T00:16:56;17.63;;;10.63;;
8293;SDS011;4185;41.506;24.938;2023-02-26T00:19:43;23.70;;;14.47;;
8293;SDS011;4185;41.506;24.938;2023-02-26T00:22:10;20.90;;;12.33;;
8293;SDS011;4185;41.506;24.938;2023-02-26T00:24:37;24.17;;;13.67;;
8293;SDS011;4185;41.506;24.938;2023-02-26T00:27:04;20.97;;;13.43;;
8293;SDS011;4185;41.506;24.938;2023-02-26T00:29:32;24.63;;;13.27;;
8293;SDS011;4185;41.506;24.938;2023-02-26T00:31:59;19.13;;;11.00;;
8293;SDS011;4185;41.506;24.938;2023-02-26T00:34:26;22.53;;;12.33;;
8293;SDS011;4185;41.506;24.938;2023-02-26T00:37:00;22.60;;;13.37;;
8293;SDS011;4185;41.506;24.938;2023-02-26T00:39:36;23.50;;;13.17;;
8293;SDS011;4185;41.506;24.938;2023-02-26T00:42:09;22.80;;;11.20;;
8293;SDS011;4185;41.506;24.938;2023-02-26T00:44:37;20.07;;;10.37;;
8293;SDS011;4185;41.506;24.938;2023-02-26T00:47:06;20.33;;;10.43;;
8293;SDS011;4185;41.506;24.938;2023-02-26T00:49:45;24.40;;;12.40;;
8293;SDS011;4185;41.506;24.938;2023-02-26T00:52:23;21.63;;;12.43;;
8293;SDS011;4185;41.506;24.938;2023-02-26T00:54:58;22.30;;;11.77;;
8293;SDS011;4185;41.506;24.938;2023-02-26T00:57:24;23.47;;;12.93;;
8293;SDS011;4185;41.506;24.938;2023-02-26T00:59:51;21.93;;;11.40;;
8293;SDS011;4185;41.506;24.938;2023-02-26T01:02:18;18.07;;;11.17;;
8293;SDS011;4185;41.506;24.938;2023-02-26T01:04:45;18.40;;;10.63;;
8293;SDS011;4185;41.506;24.938;2023-02-26T01:07:12;17.53;;;10.50;;
8293;SDS011;4185;41.506;24.938;2023-02-26T01:09:41;19.00;;;10.73;;
8293;SDS011;4185;41.506;24.938;2023-02-26T01:12:09;16.17;;;10.27;;
8293;SDS011;4185;41.506;24.938;2023-02-26T01:14:38;25.00;;;11.17;;
8293;SDS011;4185;41.506;24.938;2023-02-26T01:17:07;19.07;;;11.53;;
8293;SDS011;4185;41.506;24.938;2023-02-26T01:19:40;16.33;;;10.10;;
8293;SDS011;4185;41.506;24.938;2023-02-26T01:22:14;20.50;;;10.67;;
8293;SDS011;4185;41.506;24.938;2023-02-26T01:24:48;17.53;;;10.93;;
8293;SDS011;4185;41.506;24.938;2023-02-26T01:27:19;16.60;;;9.63;;
8293;SDS011;4185;41.506;24.938;2023-02-26T01:29:46;21.40;;;9.97;;
8293;SDS011;4185;41.506;24.938;2023-02-26T01:32:14;19.00;;;9.97;;
8293;SDS011;4185;41.506;24.938;2023-02-26T01:34:48;18.07;;;9.87;;
8293;SDS011;4185;41.506;24.938;2023-02-26T01:37:24;15.47;;;9.37;;
8293;SDS011;4185;41.506;24.938;2023-02-26T01:40:04;19.77;;;10.70;;
8293;SDS011;4185;41.506;24.938;2023-02-26T01:42:51;15.77;;;9.93;;
8293;SDS011;4185;41.506;24.938;2023-02-26T01:45:24;20.50;;;10.27;;
8293;SDS011;4185;41.506;24.938;2023-02-26T01:47:57;16.13;;;9.90;;
8293;SDS011;4185;41.506;24.938;2023-02-26T01:50:31;15.70;;;9.73;;
8293;SDS011;4185;41.506;24.938;2023-02-26T01:55:51;15.17;;;9.50;;
8293;SDS011;4185;41.506;24.938;2023-02-26T01:58:21;18.67;;;10.00;;
8293;SDS011;4185;41.506;24.938;2023-02-26T02:00:51;21.20;;;10.50;;
8293;SDS011;4185;41.506;24.938;2023-02-26T02:03:18;16.70;;;10.20;;
8293;SDS011;4185;41.506;24.938;2023-02-26T02:05:48;18.80;;;10.57;;
8293;SDS011;4185;41.506;24.938;2023-02-26T02:08:18;18.13;;;9.97;;
8293;SDS011;4185;41.506;24.938;2023-02-26T02:10:46;17.47;;;9.57;;
8293;SDS011;4185;41.506;24.938;2023-02-26T02:13:21;17.43;;;10.13;;
8293;SDS011;4185;41.506;24.938;2023-02-26T02:15:59;19.13;;;9.90;;
8293;SDS011;4185;41.506;24.938;2023-02-26T02:18:37;17.47;;;9.30;;
8293;SDS011;4185;41.506;24.938;2023-02-26T02:24:08;17.27;;;9.27;;
8293;SDS011;4185;41.506;24.938;2023-02-26T02:26:44;16.63;;;9.97;;
8293;SDS011;4185;41.506;24.938;2023-02-26T02:32:20;19.00;;;9.73;;
8293;SDS011;4185;41.506;24.938;2023-02-26T02:34:51;19.83;;;11.00;;
8293;SDS011;4185;41.506;24.938;2023-02-26T02:37:24;16.27;;;10.10;;
8293;SDS011;4185;41.506;24.938;2023-02-26T02:39:56;17.53;;;9.90;;
8293;SDS011;4185;41.506;24.938;2023-02-26T02:42:27;17.17;;;9.63;;
8293;SDS011;4185;41.506;24.938;2023-02-26T02:44:57;14.37;;;9.20;;
8293;SDS011;4185;41.506;24.938;2023-02-26T02:47:29;18.40;;;9.50;;
8293;SDS011;4185;41.506;24.938;2023-02-26T02:50:02;18.80;;;10.63;;
8293;SDS011;4185;41.506;24.938;2023-02-26T02:52:35;17.60;;;10.63;;
8293;SDS011;4185;41.506;24.938;2023-02-26T02:55:08;19.67;;;10.57;;
8293;SDS011;4185;41.506;24.938;2023-02-26T02:57:39;17.63;;;10.57;;
8293;SDS011;4185;41.506;24.938;2023-02-26T03:00:11;17.27;;;9.07;;
8293;SDS011;4185;41.506;24.938;2023-02-26T03:02:45;22.33;;;11.87;;
8293;SDS011;4185;41.506;24.938;2023-02-26T03:05:15;18.80;;;9.53;;
8293;SDS011;4185;41.506;24.938;2023-02-26T03:07:43;13.10;;;8.73;;
8293;SDS011;4185;41.506;24.938;2023-02-26T03:10:14;19.93;;;9.00;;
8293;SDS011;4185;41.506;24.938;2023-02-26T03:12:42;16.37;;;9.53;;
8293;SDS011;4185;41.506;24.938;2023-02-26T03:15:09;19.03;;;9.60;;
8293;SDS011;4185;41.506;24.938;2023-02-26T03:17:38;16.60;;;9.30;;
8293;SDS011;4185;41.506;24.938;2023-02-26T03:20:16;24.20;;;12.83;;
8293;SDS011;4185;41.506;24.938;2023-02-26T03:22:51;20.37;;;10.93;;
8293;SDS011;4185;41.506;24.938;2023-02-26T03:25:28;22.53;;;11.40;;
8293;SDS011;4185;41.506;24.938;2023-02-26T03:28:07;16.97;;;10.70;;
8293;SDS011;4185;41.506;24.938;2023-02-26T03:30:42;19.90;;;9.70;;
8293;SDS011;4185;41.506;24.938;2023-02-26T03:33:16;18.13;;;10.13;;
8293;SDS011;4185;41.506;24.938;2023-02-26T03:35:48;26.97;;;13.57;;
8293;SDS011;4185;41.506;24.938;2023-02-26T03:38:21;18.33;;;10.23;;
8293;SDS011;4185;41.506;24.938;2023-02-26T03:40:54;28.80;;;10.53;;
8293;SDS011;4185;41.506;24.938;2023-02-26T03:43:27;16.60;;;9.50;;
8293;SDS011;4185;41.506;24.938;2023-02-26T03:45:59;18.10;;;9.97;;
8293;SDS011;4185;41.506;24.938;2023-02-26T03:48:32;18.80;;;8.67;;
8293;SDS011;4185;41.506;24.938;2023-02-26T03:51:02;18.07;;;9.33;;
8293;SDS011;4185;41.506;24.938;2023-02-26T03:53:33;32.80;;;15.43;;
8293;SDS011;4185;41.506;24.938;2023-02-26T03:56:07;22.30;;;12.50;;
8293;SDS011;4185;41.506;24.938;2023-02-26T03:58:40;25.33;;;12.63;;
8293;SDS011;4185;41.506;24.938;2023-02-26T04:01:09;23.37;;;13.90;;
8293;SDS011;4185;41.506;24.938;2023-02-26T04:03:44;25.37;;;14.47;;
8293;SDS011;4185;41.506;24.938;2023-02-26T04:06:15;28.93;;;15.80;;
8293;SDS011;4185;41.506;24.938;2023-02-26T04:08:42;27.63;;;13.07;;
8293;SDS011;4185;41.506;24.938;2023-02-26T04:11:10;19.83;;;12.17;;
8293;SDS011;4185;41.506;24.938;2023-02-26T04:13:41;24.30;;;13.53;;
8293;SDS011;4185;41.506;24.938;2023-02-26T04:16:08;27.10;;;14.37;;
8293;SDS011;4185;41.506;24.938;2023-02-26T04:18:34;28.87;;;14.43;;
8293;SDS011;4185;41.506;24.938;2023-02-26T04:21:03;23.90;;;13.97;;
8293;SDS011;4185;41.506;24.938;2023-02-26T04:23:30;30.60;;;13.97;;
8293;SDS011;4185;41.506;24.938;2023-02-26T04:25:57;26.87;;;15.10;;
8293;SDS011;4185;41.506;24.938;2023-02-26T04:28:23;27.13;;;15.80;;
8293;SDS011;4185;41.506;24.938;2023-02-26T04:30:50;27.50;;;14.23;;
8293;SDS011;4185;41.506;24.938;2023-02-26T04:33:17;23.40;;;12.97;;
8293;SDS011;4185;41.506;24.938;2023-02-26T04:35:44;25.80;;;14.13;;
8293;SDS011;4185;41.506;24.938;2023-02-26T04:38:12;25.53;;;13.57;;
8293;SDS011;4185;41.506;24.938;2023-02-26T04:40:39;21.57;;;12.13;;
8293;SDS011;4185;41.506;24.938;2023-02-26T04:43:05;22.23;;;13.47;;
8293;SDS011;4185;41.506;24.938;2023-02-26T04:45:32;25.50;;;14.87;;
8293;SDS011;4185;41.506;24.938;2023-02-26T04:47:59;18.50;;;11.63;;
8293;SDS011;4185;41.506;24.938;2023-02-26T04:50:25;20.67;;;12.50;;
8293;SDS011;4185;41.506;24.938;2023-02-26T04:52:52;21.77;;;12.57;;
8293;SDS011;4185;41.506;24.938;2023-02-26T04:55:20;22.23;;;12.33;;
8293;SDS011;4185;41.506;24.938;2023-02-26T04:57:47;17.57;;;9.97;;
8293;SDS011;4185;41.506;24.938;2023-02-26T05:00:15;19.50;;;10.67;;
8293;SDS011;4185;41.506;24.938;2023-02-26T05:02:43;18.23;;;11.10;;
8293;SDS011;4185;41.506;24.938;2023-02-26T05:05:10;16.57;;;10.50;;
8293;SDS011;4185;41.506;24.938;2023-02-26T05:07:37;18.67;;;11.27;;
8293;SDS011;4185;41.506;24.938;2023-02-26T05:10:04;17.67;;;10.97;;
8293;SDS011;4185;41.506;24.938;2023-02-26T05:12:33;19.57;;;10.37;;
8293;SDS011;4185;41.506;24.938;2023-02-26T05:15:00;21.53;;;11.23;;
8293;SDS011;4185;41.506;24.938;2023-02-26T05:17:27;12.63;;;8.53;;
8293;SDS011;4185;41.506;24.938;2023-02-26T05:19:53;15.03;;;8.93;;
8293;SDS011;4185;41.506;24.938;2023-02-26T05:22:20;17.17;;;9.63;;
8293;SDS011;4185;41.506;24.938;2023-02-26T05:24:47;25.50;;;13.33;;
8293;SDS011;4185;41.506;24.938;2023-02-26T05:27:14;22.77;;;13.07;;
8293;SDS011;4185;41.506;24.938;2023-02-26T05:29:42;34.30;;;17.80;;
8293;SDS011;4185;41.506;24.938;2023-02-26T05:32:09;25.10;;;14.27;;
8293;SDS011;4185;41.506;24.938;2023-02-26T05:34:36;22.37;;;12.90;;
8293;SDS011;4185;41.506;24.938;2023-02-26T05:37:03;95.90;;;40.17;;
8293;SDS011;4185;41.506;24.938;2023-02-26T05:39:29;42.37;;;20.33;;
8293;SDS011;4185;41.506;24.938;2023-02-26T05:41:57;33.27;;;16.13;;
8293;SDS011;4185;41.506;24.938;2023-02-26T05:44:24;36.87;;;17.20;;
8293;SDS011;4185;41.506;24.938;2023-02-26T05:46:52;39.53;;;18.37;;
8293;SDS011;4185;41.506;24.938;2023-02-26T05:49:19;26.63;;;12.20;;
8293;SDS011;4185;41.506;24.938;2023-02-26T05:51:46;22.43;;;12.80;;
8293;SDS011;4185;41.506;24.938;2023-02-26T05:54:13;48.67;;;25.13;;
8293;SDS011;4185;41.506;24.938;2023-02-26T05:56:40;76.03;;;40.57;;
8293;SDS011;4185;41.506;24.938;2023-02-26T05:59:06;36.37;;;20.80;;
8293;SDS011;4185;41.506;24.938;2023-02-26T06:01:33;36.57;;;19.23;;
8293;SDS011;4185;41.506;24.938;2023-02-26T06:04:02;19.10;;;11.07;;
8293;SDS011;4185;41.506;24.938;2023-02-26T06:06:29;17.33;;;10.53;;
8293;SDS011;4185;41.506;24.938;2023-02-26T06:08:57;32.63;;;16.00;;
8293;SDS011;4185;41.506;24.938;2023-02-26T06:11:25;20.83;;;12.33;;
8293;SDS011;4185;41.506;24.938;2023-02-26T06:13:52;22.30;;;12.80;;
8293;SDS011;4185;41.506;24.938;2023-02-26T06:16:19;26.50;;;15.23;;
8293;SDS011;4185;41.506;24.938;2023-02-26T06:18:46;22.57;;;13.47;;
8293;SDS011;4185;41.506;24.938;2023-02-26T06:21:15;26.47;;;14.17;;
8293;SDS011;4185;41.506;24.938;2023-02-26T06:23:42;27.90;;;13.83;;
8293;SDS011;4185;41.506;24.938;2023-02-26T06:26:09;23.60;;;11.50;;
8293;SDS011;4185;41.506;24.938;2023-02-26T06:28:36;21.97;;;11.97;;
8293;SDS011;4185;41.506;24.938;2023-02-26T06:31:03;25.27;;;10.67;;
8293;SDS011;4185;41.506;24.938;2023-02-26T06:33:30;28.83;;;14.60;;
8293;SDS011;4185;41.506;24.938;2023-02-26T06:35:56;16.20;;;7.80;;
8293;SDS011;4185;41.506;24.938;2023-02-26T06:38:26;16.47;;;8.20;;
8293;SDS011;4185;41.506;24.938;2023-02-26T06:40:54;16.87;;;7.67;;
8293;SDS011;4185;41.506;24.938;2023-02-26T06:43:21;20.40;;;7.83;;
8293;SDS011;4185;41.506;24.938;2023-02-26T06:45:47;11.03;;;5.20;;
8293;SDS011;4185;41.506;24.938;2023-02-26T06:48:14;15.03;;;6.60;;
8293;SDS011;4185;41.506;24.938;2023-02-26T06:50:41;14.10;;;6.07;;
8293;SDS011;4185;41.506;24.938;2023-02-26T06:53:08;21.93;;;7.13;;
8293;SDS011;4185;41.506;24.938;2023-02-26T06:55:40;18.70;;;6.83;;
8293;SDS011;4185;41.506;24.938;2023-02-26T06:58:08;14.77;;;6.17;;
8293;SDS011;4185;41.506;24.938;2023-02-26T07:00:35;13.40;;;6.43;;
8293;SDS011;4185;41.506;24.938;2023-02-26T07:03:02;20.33;;;7.40;;
8293;SDS011;4185;41.506;24.938;2023-02-26T07:05:29;15.00;;;8.13;;
8293;SDS011;4185;41.506;24.938;2023-02-26T07:07:56;21.70;;;7.10;;
8293;SDS011;4185;41.506;24.938;2023-02-26T07:10:23;33.93;;;17.13;;
8293;SDS011;4185;41.506;24.938;2023-02-26T07:12:51;41.33;;;18.53;;
8293;SDS011;4185;41.506;24.938;2023-02-26T07:15:18;58.67;;;27.03;;
8293;SDS011;4185;41.506;24.938;2023-02-26T07:17:45;14.93;;;7.07;;
8293;SDS011;4185;41.506;24.938;2023-02-26T07:20:11;17.40;;;10.90;;
8293;SDS011;4185;41.506;24.938;2023-02-26T07:22:38;17.00;;;8.20;;
8293;SDS011;4185;41.506;24.938;2023-02-26T07:25:05;14.63;;;6.03;;
8293;SDS011;4185;41.506;24.938;2023-02-26T07:27:32;11.20;;;5.67;;
8293;SDS011;4185;41.506;24.938;2023-02-26T07:30:01;19.67;;;7.67;;
8293;SDS011;4185;41.506;24.938;2023-02-26T07:32:28;14.83;;;6.63;;
8293;SDS011;4185;41.506;24.938;2023-02-26T07:34:55;14.17;;;6.53;;
8293;SDS011;4185;41.506;24.938;2023-02-26T07:37:21;21.97;;;7.27;;
8293;SDS011;4185;41.506;24.938;2023-02-26T07:39:48;17.33;;;6.30;;
8293;SDS011;4185;41.506;24.938;2023-02-26T07:42:16;9.93;;;6.33;;
8293;SDS011;4185;41.506;24.938;2023-02-26T07:44:43;14.60;;;7.10;;
8293;SDS011;4185;41.506;24.938;2023-02-26T07:47:11;37.03;;;14.90;;
8293;SDS011;4185;41.506;24.938;2023-02-26T07:49:38;11.63;;;7.27;;
8293;SDS011;4185;41.506;24.938;2023-02-26T07:52:05;12.87;;;6.50;;
8293;SDS011;4185;41.506;24.938;2023-02-26T07:54:32;13.70;;;6.27;;
8293;SDS011;4185;41.506;24.938;2023-02-26T07:56:59;17.57;;;6.53;;
8293;SDS011;4185;41.506;24.938;2023-02-26T07:59:26;22.60;;;6.40;;
8293;SDS011;4185;41.506;24.938;2023-02-26T08:01:53;18.47;;;7.00;;
8293;SDS011;4185;41.506;24.938;2023-02-26T08:04:21;20.70;;;7.13;;
8293;SDS011;4185;41.506;24.938;2023-02-26T08:06:48;14.83;;;5.83;;
8293;SDS011;4185;41.506;24.938;2023-02-26T08:09:15;15.77;;;6.60;;
8293;SDS011;4185;41.506;24.938;2023-02-26T08:11:42;10.87;;;5.47;;
8293;SDS011;4185;41.506;24.938;2023-02-26T08:14:09;23.43;;;6.70;;
8293;SDS011;4185;41.506;24.938;2023-02-26T08:16:36;11.63;;;5.43;;
8293;SDS011;4185;41.506;24.938;2023-02-26T08:19:03;15.10;;;5.10;;
8293;SDS011;4185;41.506;24.938;2023-02-26T08:21:31;13.10;;;5.90;;
8293;SDS011;4185;41.506;24.938;2023-02-26T08:23:58;11.10;;;5.33;;
8293;SDS011;4185;41.506;24.938;2023-02-26T08:26:25;14.43;;;5.30;;
8293;SDS011;4185;41.506;24.938;2023-02-26T08:28:52;20.23;;;5.63;;
8293;SDS011;4185;41.506;24.938;2023-02-26T08:31:19;12.43;;;5.10;;
8293;SDS011;4185;41.506;24.938;2023-02-26T08:33:46;16.13;;;5.30;;
8293;SDS011;4185;41.506;24.938;2023-02-26T08:36:12;11.30;;;5.10;;
8293;SDS011;4185;41.506;24.938;2023-02-26T08:38:41;12.07;;;5.00;;
8293;SDS011;4185;41.506;24.938;2023-02-26T08:41:07;15.53;;;6.40;;
8293;SDS011;4185;41.506;24.938;2023-02-26T08:43:34;14.87;;;6.97;;
8293;SDS011;4185;41.506;24.938;2023-02-26T08:46:01;15.73;;;5.73;;
8293;SDS011;4185;41.506;24.938;2023-02-26T08:48:28;12.70;;;5.77;;
8293;SDS011;4185;41.506;24.938;2023-02-26T08:50:55;10.03;;;4.70;;
8293;SDS011;4185;41.506;24.938;2023-02-26T08:53:22;10.97;;;5.60;;
8293;SDS011;4185;41.506;24.938;2023-02-26T08:55:51;15.60;;;7.40;;
8293;SDS011;4185;41.506;24.938;2023-02-26T08:58:19;13.93;;;6.57;;
8293;SDS011;4185;41.506;24.938;2023-02-26T09:00:46;12.80;;;5.23;;
8293;SDS011;4185;41.506;24.938;2023-02-26T09:03:14;13.20;;;5.23;;
8293;SDS011;4185;41.506;24.938;2023-02-26T09:05:40;11.63;;;4.93;;
8293;SDS011;4185;41.506;24.938;2023-02-26T09:08:07;11.70;;;5.50;;
8293;SDS011;4185;41.506;24.938;2023-02-26T09:10:35;14.93;;;5.27;;
8293;SDS011;4185;41.506;24.938;2023-02-26T09:13:04;11.37;;;4.77;;
8293;SDS011;4185;41.506;24.938;2023-02-26T09:15:31;11.17;;;5.00;;
8293;SDS011;4185;41.506;24.938;2023-02-26T09:17:58;11.67;;;5.50;;
8293;SDS011;4185;41.506;24.938;2023-02-26T09:20:24;8.87;;;5.53;;
8293;SDS011;4185;41.506;24.938;2023-02-26T09:22:52;12.77;;;5.10;;
8293;SDS011;4185;41.506;24.938;2023-02-26T09:25:19;13.13;;;5.33;;
8293;SDS011;4185;41.506;24.938;2023-02-26T09:27:45;13.43;;;4.40;;
8293;SDS011;4185;41.506;24.938;2023-02-26T09:30:14;11.20;;;4.97;;
8293;SDS011;4185;41.506;24.938;2023-02-26T09:32:41;17.03;;;6.40;;
8293;SDS011;4185;41.506;24.938;2023-02-26T09:35:08;12.73;;;6.13;;
8293;SDS011;4185;41.506;24.938;2023-02-26T09:37:36;15.07;;;5.53;;
8293;SDS011;4185;41.506;24.938;2023-02-26T09:40:04;15.77;;;5.70;;
8293;SDS011;4185;41.506;24.938;2023-02-26T09:42:38;12.97;;;4.83;;
8293;SDS011;4185;41.506;24.938;2023-02-26T09:45:20;11.90;;;5.43;;
8293;SDS011;4185;41.506;24.938;2023-02-26T09:47:52;13.83;;;6.23;;
8293;SDS011;4185;41.506;24.938;2023-02-26T09:50:21;14.90;;;6.00;;
8293;SDS011;4185;41.506;24.938;2023-02-26T09:52:51;7.37;;;4.20;;
8293;SDS011;4185;41.506;24.938;2023-02-26T09:55:25;17.97;;;6.67;;
8293;SDS011;4185;41.506;24.938;2023-02-26T09:57:55;17.60;;;5.83;;
8293;SDS011;4185;41.506;24.938;2023-02-26T10:00:28;12.07;;;7.20;;
8293;SDS011;4185;41.506;24.938;2023-02-26T10:03:01;11.80;;;5.80;;
8293;SDS011;4185;41.506;24.938;2023-02-26T10:05:42;10.87;;;5.30;;
8293;SDS011;4185;41.506;24.938;2023-02-26T10:08:18;30.23;;;12.00;;
8293;SDS011;4185;41.506;24.938;2023-02-26T10:10:49;12.70;;;6.13;;
8293;SDS011;4185;41.506;24.938;2023-02-26T10:13:33;17.23;;;7.20;;
8293;SDS011;4185;41.506;24.938;2023-02-26T10:16:06;15.30;;;8.03;;
8293;SDS011;4185;41.506;24.938;2023-02-26T10:18:38;16.27;;;4.83;;
8293;SDS011;4185;41.506;24.938;2023-02-26T10:21:08;10.30;;;5.20;;
8293;SDS011;4185;41.506;24.938;2023-02-26T10:23:40;10.67;;;6.70;;
8293;SDS011;4185;41.506;24.938;2023-02-26T10:26:15;10.63;;;5.47;;
8293;SDS011;4185;41.506;24.938;2023-02-26T10:28:49;18.27;;;6.17;;
8293;SDS011;4185;41.506;24.938;2023-02-26T10:31:23;17.33;;;6.23;;
8293;SDS011;4185;41.506;24.938;2023-02-26T10:33:58;16.00;;;7.73;;
8293;SDS011;4185;41.506;24.938;2023-02-26T10:36:36;14.50;;;7.80;;
8293;SDS011;4185;41.506;24.938;2023-02-26T10:41:57;17.73;;;6.97;;
8293;SDS011;4185;41.506;24.938;2023-02-26T10:44:29;17.03;;;5.93;;
8293;SDS011;4185;41.506;24.938;2023-02-26T10:47:04;13.43;;;5.37;;
8293;SDS011;4185;41.506;24.938;2023-02-26T10:49:41;12.67;;;5.60;;
8293;SDS011;4185;41.506;24.938;2023-02-26T10:52:17;11.23;;;5.50;;
8293;SDS011;4185;41.506;24.938;2023-02-26T10:54:49;11.80;;;5.60;;
8293;SDS011;4185;41.506;24.938;2023-02-26T10:57:29;16.47;;;6.73;;
8293;SDS011;4185;41.506;24.938;2023-02-26T10:59:58;18.67;;;6.43;;
8293;SDS011;4185;41.506;24.938;2023-02-26T11:02:37;15.30;;;6.80;;
8293;SDS011;4185;41.506;24.938;2023-02-26T11:05:07;15.50;;;6.17;;
8293;SDS011;4185;41.506;24.938;2023-02-26T11:07:41;10.63;;;5.17;;
8293;SDS011;4185;41.506;24.938;2023-02-26T11:10:15;13.83;;;5.73;;
8293;SDS011;4185;41.506;24.938;2023-02-26T11:12:43;12.60;;;5.47;;
8293;SDS011;4185;41.506;24.938;2023-02-26T11:15:12;13.63;;;6.60;;
8293;SDS011;4185;41.506;24.938;2023-02-26T11:17:41;13.80;;;7.57;;
8293;SDS011;4185;41.506;24.938;2023-02-26T11:20:14;19.53;;;7.60;;
8293;SDS011;4185;41.506;24.938;2023-02-26T11:22:45;22.20;;;8.63;;
8293;SDS011;4185;41.506;24.938;2023-02-26T11:25:16;17.20;;;7.17;;
8293;SDS011;4185;41.506;24.938;2023-02-26T11:27:48;17.23;;;7.07;;
8293;SDS011;4185;41.506;24.938;2023-02-26T11:30:20;10.03;;;5.57;;
8293;SDS011;4185;41.506;24.938;2023-02-26T11:32:52;10.13;;;5.43;;
8293;SDS011;4185;41.506;24.938;2023-02-26T11:35:23;12.73;;;6.00;;
8293;SDS011;4185;41.506;24.938;2023-02-26T11:37:52;12.47;;;4.80;;
8293;SDS011;4185;41.506;24.938;2023-02-26T11:40:21;14.13;;;4.73;;
8293;SDS011;4185;41.506;24.938;2023-02-26T11:42:52;15.07;;;4.33;;
8293;SDS011;4185;41.506;24.938;2023-02-26T11:45:21;18.17;;;6.20;;
8293;SDS011;4185;41.506;24.938;2023-02-26T11:47:57;15.80;;;6.07;;
8293;SDS011;4185;41.506;24.938;2023-02-26T11:50:27;13.47;;;5.53;;
8293;SDS011;4185;41.506;24.938;2023-02-26T11:52:56;12.87;;;5.30;;
8293;SDS011;4185;41.506;24.938;2023-02-26T11:55:31;12.67;;;5.50;;
8293;SDS011;4185;41.506;24.938;2023-02-26T11:57:59;11.33;;;5.17;;
8293;SDS011;4185;41.506;24.938;2023-02-26T12:00:29;8.90;;;4.47;;
8293;SDS011;4185;41.506;24.938;2023-02-26T12:03:00;10.90;;;5.43;;
8293;SDS011;4185;41.506;24.938;2023-02-26T12:05:29;16.13;;;5.80;;
8293;SDS011;4185;41.506;24.938;2023-02-26T12:07:57;10.93;;;6.27;;
8293;SDS011;4185;41.506;24.938;2023-02-26T12:10:24;12.67;;;6.00;;
8293;SDS011;4185;41.506;24.938;2023-02-26T12:13:03;11.53;;;6.03;;
8293;SDS011;4185;41.506;24.938;2023-02-26T12:15:38;13.90;;;6.00;;
8293;SDS011;4185;41.506;24.938;2023-02-26T12:21:19;17.60;;;5.33;;
8293;SDS011;4185;41.506;24.938;2023-02-26T12:26:49;21.77;;;6.93;;
8293;SDS011;4185;41.506;24.938;2023-02-26T12:29:25;19.87;;;7.43;;
8293;SDS011;4185;41.506;24.938;2023-02-26T12:35:09;21.10;;;10.90;;
8293;SDS011;4185;41.506;24.938;2023-02-26T12:38:00;11.63;;;6.13;;
8293;SDS011;4185;41.506;24.938;2023-02-26T12:43:48;22.50;;;6.50;;
8293;SDS011;4185;41.506;24.938;2023-02-26T12:46:30;18.13;;;5.70;;
8293;SDS011;4185;41.506;24.938;2023-02-26T12:49:11;15.87;;;6.93;;
8293;SDS011;4185;41.506;24.938;2023-02-26T12:55:18;14.03;;;4.53;;
8293;SDS011;4185;41.506;24.938;2023-02-26T12:57:56;14.33;;;5.93;;
8293;SDS011;4185;41.506;24.938;2023-02-26T13:00:44;12.67;;;5.80;;
8293;SDS011;4185;41.506;24.938;2023-02-26T13:03:25;15.67;;;7.33;;
8293;SDS011;4185;41.506;24.938;2023-02-26T13:06:13;13.97;;;5.70;;
8293;SDS011;4185;41.506;24.938;2023-02-26T13:09:06;18.10;;;7.13;;
8293;SDS011;4185;41.506;24.938;2023-02-26T13:11:46;12.17;;;4.63;;
8293;SDS011;4185;41.506;24.938;2023-02-26T13:14:28;10.53;;;4.33;;
8293;SDS011;4185;41.506;24.938;2023-02-26T13:17:02;16.80;;;6.10;;
8293;SDS011;4185;41.506;24.938;2023-02-26T13:19:36;8.70;;;4.20;;
8293;SDS011;4185;41.506;24.938;2023-02-26T13:22:12;11.43;;;4.70;;
8293;SDS011;4185;41.506;24.938;2023-02-26T13:24:48;7.97;;;4.03;;
8293;SDS011;4185;41.506;24.938;2023-02-26T13:27:21;94.50;;;32.03;;
8293;SDS011;4185;41.506;24.938;2023-02-26T13:29:54;17.83;;;5.70;;
8293;SDS011;4185;41.506;24.938;2023-02-26T13:32:30;12.13;;;5.47;;
8293;SDS011;4185;41.506;24.938;2023-02-26T13:35:02;18.50;;;5.27;;
8293;SDS011;4185;41.506;24.938;2023-02-26T13:37:32;11.27;;;4.90;;
8293;SDS011;4185;41.506;24.938;2023-02-26T13:40:15;13.13;;;5.07;;
8293;SDS011;4185;41.506;24.938;2023-02-26T13:43:07;10.90;;;4.43;;
8293;SDS011;4185;41.506;24.938;2023-02-26T13:45:44;15.50;;;5.97;;
8293;SDS011;4185;41.506;24.938;2023-02-26T13:48:19;29.63;;;9.03;;
8293;SDS011;4185;41.506;24.938;2023-02-26T13:50:55;15.77;;;6.53;;
8293;SDS011;4185;41.506;24.938;2023-02-26T13:59:36;10.43;;;4.27;;
8293;SDS011;4185;41.506;24.938;2023-02-26T14:05:29;9.90;;;3.73;;
8293;SDS011;4185;41.506;24.938;2023-02-26T14:08:23;8.13;;;3.93;;
8293;SDS011;4185;41.506;24.938;2023-02-26T14:14:04;9.63;;;5.37;;
8293;SDS011;4185;41.506;24.938;2023-02-26T14:16:38;9.63;;;4.63;;
8293;SDS011;4185;41.506;24.938;2023-02-26T14:19:17;7.97;;;4.80;;
8293;SDS011;4185;41.506;24.938;2023-02-26T14:21:51;12.40;;;6.63;;
8293;SDS011;4185;41.506;24.938;2023-02-26T14:24:22;14.13;;;5.80;;
8293;SDS011;4185;41.506;24.938;2023-02-26T14:27:07;14.17;;;5.40;;
8293;SDS011;4185;41.506;24.938;2023-02-26T14:29:58;13.07;;;4.97;;
8293;SDS011;4185;41.506;24.938;2023-02-26T14:32:31;12.30;;;4.27;;
8293;SDS011;4185;41.506;24.938;2023-02-26T14:35:02;14.23;;;4.83;;
8293;SDS011;4185;41.506;24.938;2023-02-26T14:37:31;11.97;;;5.30;;
8293;SDS011;4185;41.506;24.938;2023-02-26T14:40:03;11.10;;;4.07;;
8293;SDS011;4185;41.506;24.938;2023-02-26T14:42:34;11.27;;;5.03;;
8293;SDS011;4185;41.506;24.938;2023-02-26T14:45:08;11.10;;;4.97;;
8293;SDS011;4185;41.506;24.938;2023-02-26T14:47:48;12.77;;;5.17;;
8293;SDS011;4185;41.506;24.938;2023-02-26T14:50:17;12.47;;;4.73;;
8293;SDS011;4185;41.506;24.938;2023-02-26T14:56:01;11.07;;;4.80;;
8293;SDS011;4185;41.506;24.938;2023-02-26T14:58:39;10.20;;;3.83;;
8293;SDS011;4185;41.506;24.938;2023-02-26T15:01:19;9.67;;;5.37;;
8293;SDS011;4185;41.506;24.938;2023-02-26T15:04:09;14.03;;;4.30;;
8293;SDS011;4185;41.506;24.938;2023-02-26T15:09:42;12.53;;;4.70;;
8293;SDS011;4185;41.506;24.938;2023-02-26T15:12:24;11.23;;;4.03;;
8293;SDS011;4185;41.506;24.938;2023-02-26T15:15:07;6.03;;;3.50;;
8293;SDS011;4185;41.506;24.938;2023-02-26T15:17:53;12.57;;;4.67;;
8293;SDS011;4185;41.506;24.938;2023-02-26T15:20:34;10.93;;;4.23;;
8293;SDS011;4185;41.506;24.938;2023-02-26T15:23:15;16.67;;;4.60;;
8293;SDS011;4185;41.506;24.938;2023-02-26T15:25:51;9.03;;;3.77;;
8293;SDS011;4185;41.506;24.938;2023-02-26T15:28:22;9.67;;;5.00;;
8293;SDS011;4185;41.506;24.938;2023-02-26T15:30:52;10.57;;;4.67;;
8293;SDS011;4185;41.506;24.938;2023-02-26T15:33:22;11.70;;;4.17;;
8293;SDS011;4185;41.506;24.938;2023-02-26T15:35:51;9.93;;;4.67;;
8293;SDS011;4185;41.506;24.938;2023-02-26T15:38:20;12.00;;;6.50;;
8293;SDS011;4185;41.506;24.938;2023-02-26T15:40:48;8.20;;;3.90;;
8293;SDS011;4185;41.506;24.938;2023-02-26T15:43:19;10.47;;;3.47;;
8293;SDS011;4185;41.506;24.938;2023-02-26T15:45:50;9.53;;;4.13;;
8293;SDS011;4185;41.506;24.938;2023-02-26T15:48:19;18.27;;;7.37;;
8293;SDS011;4185;41.506;24.938;2023-02-26T15:50:53;21.83;;;9.07;;
8293;SDS011;4185;41.506;24.938;2023-02-26T15:53:26;21.57;;;8.03;;